Sites, California
Current Conditions -  °F | °C
As of 9:56 PM on Friday 24 Oct 2014 (Local Time) from KUKI Reporting Station
Overcast Overcast  
Wind Chill: 62°   Ceiling: 3700
Heat Index: 62°   Visibility: 10mi
Dew Point: 53°   Wind: 10mph
Humidity: 72%   Direction: 160°SSE
Pressure: 29.87"   Gusts: NA
Location:  39.3318°N, 122.533°W
Report Text: KUKI 250456Z AUTO 16009KT 10SM BKN037 OVC043 17/12 A2987 RMK AO2 SLP108 T01670117
Loading
Personal Weather Stations






























Interactive Weather Map
Tropical Storm Tracking
New forecast layout! Learn more

10-Day Weather Forecast

Advertisements
Track Severe Weather on mobile